sensor_id;sensor_type;location;lat;lon;timestamp;temperature;humidity
35305;DHT22;26433;48.034;-1.764;2022-07-29T00:01:55;21.30;54.40
35305;DHT22;26433;48.034;-1.764;2022-07-29T00:06:58;21.30;54.50
35305;DHT22;26433;48.034;-1.764;2022-07-29T00:12:03;21.30;54.50
35305;DHT22;26433;48.034;-1.764;2022-07-29T00:17:08;21.40;54.60
35305;DHT22;26433;48.034;-1.764;2022-07-29T00:22:12;21.40;54.70
35305;DHT22;26433;48.034;-1.764;2022-07-29T00:27:15;21.40;54.90
35305;DHT22;26433;48.034;-1.764;2022-07-29T00:32:20;21.30;55.10
35305;DHT22;26433;48.034;-1.764;2022-07-29T00:37:24;21.20;55.50
35305;DHT22;26433;48.034;-1.764;2022-07-29T00:42:28;21.10;55.60
35305;DHT22;26433;48.034;-1.764;2022-07-29T00:47:33;21.10;55.90
35305;DHT22;26433;48.034;-1.764;2022-07-29T00:52:38;21.10;56.10
35305;DHT22;26433;48.034;-1.764;2022-07-29T00:57:43;21.00;56.20
35305;DHT22;26433;48.034;-1.764;2022-07-29T01:02:49;21.00;56.40
35305;DHT22;26433;48.034;-1.764;2022-07-29T01:07:53;21.00;56.70
35305;DHT22;26433;48.034;-1.764;2022-07-29T01:12:58;21.00;56.80
35305;DHT22;26433;48.034;-1.764;2022-07-29T01:18:16;21.00;57.00
35305;DHT22;26433;48.034;-1.764;2022-07-29T01:23:52;21.00;57.10
35305;DHT22;26433;48.034;-1.764;2022-07-29T01:29:11;21.00;57.30
35305;DHT22;26433;48.034;-1.764;2022-07-29T01:34:21;21.00;57.40
35305;DHT22;26433;48.034;-1.764;2022-07-29T01:39:30;21.00;57.40
35305;DHT22;26433;48.034;-1.764;2022-07-29T01:44:41;20.90;57.60
35305;DHT22;26433;48.034;-1.764;2022-07-29T01:49:50;20.90;57.80
35305;DHT22;26433;48.034;-1.764;2022-07-29T01:54:57;21.00;57.80
35305;DHT22;26433;48.034;-1.764;2022-07-29T02:00:04;21.00;57.90
35305;DHT22;26433;48.034;-1.764;2022-07-29T02:05:14;21.00;58.00
35305;DHT22;26433;48.034;-1.764;2022-07-29T02:10:21;21.10;58.10
35305;DHT22;26433;48.034;-1.764;2022-07-29T02:15:30;21.00;58.30
35305;DHT22;26433;48.034;-1.764;2022-07-29T02:20:35;21.00;58.70
35305;DHT22;26433;48.034;-1.764;2022-07-29T02:25:41;20.90;58.90
35305;DHT22;26433;48.034;-1.764;2022-07-29T02:30:48;20.90;59.20
35305;DHT22;26433;48.034;-1.764;2022-07-29T02:35:53;20.90;59.40
35305;DHT22;26433;48.034;-1.764;2022-07-29T02:40:59;21.00;59.40
35305;DHT22;26433;48.034;-1.764;2022-07-29T02:46:08;21.00;59.30
35305;DHT22;26433;48.034;-1.764;2022-07-29T02:51:36;21.10;59.30
35305;DHT22;26433;48.034;-1.764;2022-07-29T02:56:46;21.10;59.50
35305;DHT22;26433;48.034;-1.764;2022-07-29T03:01:55;21.00;59.70
35305;DHT22;26433;48.034;-1.764;2022-07-29T03:07:00;21.00;59.90
35305;DHT22;26433;48.034;-1.764;2022-07-29T03:12:04;21.00;60.00
35305;DHT22;26433;48.034;-1.764;2022-07-29T03:17:10;21.00;60.10
35305;DHT22;26433;48.034;-1.764;2022-07-29T03:22:14;21.10;60.00
35305;DHT22;26433;48.034;-1.764;2022-07-29T03:27:20;21.20;60.00
35305;DHT22;26433;48.034;-1.764;2022-07-29T03:32:25;21.20;60.00
35305;DHT22;26433;48.034;-1.764;2022-07-29T03:37:29;21.20;60.10
35305;DHT22;26433;48.034;-1.764;2022-07-29T03:42:34;21.10;60.30
35305;DHT22;26433;48.034;-1.764;2022-07-29T03:47:44;21.10;60.50
35305;DHT22;26433;48.034;-1.764;2022-07-29T03:52:53;21.10;60.70
35305;DHT22;26433;48.034;-1.764;2022-07-29T03:57:57;21.10;60.70
35305;DHT22;26433;48.034;-1.764;2022-07-29T04:03:03;21.10;60.90
35305;DHT22;26433;48.034;-1.764;2022-07-29T04:08:12;21.00;61.00
35305;DHT22;26433;48.034;-1.764;2022-07-29T04:13:15;21.00;61.00
35305;DHT22;26433;48.034;-1.764;2022-07-29T04:18:20;21.00;61.10
35305;DHT22;26433;48.034;-1.764;2022-07-29T04:23:24;21.00;61.20
35305;DHT22;26433;48.034;-1.764;2022-07-29T04:28:28;21.00;61.30
35305;DHT22;26433;48.034;-1.764;2022-07-29T04:33:33;21.00;61.80
35305;DHT22;26433;48.034;-1.764;2022-07-29T04:38:37;21.00;61.30
35305;DHT22;26433;48.034;-1.764;2022-07-29T04:43:41;21.00;61.30
35305;DHT22;26433;48.034;-1.764;2022-07-29T04:48:46;21.00;61.50
35305;DHT22;26433;48.034;-1.764;2022-07-29T04:53:50;21.00;61.70
35305;DHT22;26433;48.034;-1.764;2022-07-29T04:58:54;21.00;61.70
35305;DHT22;26433;48.034;-1.764;2022-07-29T05:03:59;21.00;61.80
35305;DHT22;26433;48.034;-1.764;2022-07-29T05:09:02;21.00;62.00
35305;DHT22;26433;48.034;-1.764;2022-07-29T05:14:06;21.00;62.00
35305;DHT22;26433;48.034;-1.764;2022-07-29T05:19:12;21.10;62.00
35305;DHT22;26433;48.034;-1.764;2022-07-29T05:24:16;21.10;62.00
35305;DHT22;26433;48.034;-1.764;2022-07-29T05:29:20;21.20;62.00
35305;DHT22;26433;48.034;-1.764;2022-07-29T05:34:45;21.20;62.00
35305;DHT22;26433;48.034;-1.764;2022-07-29T05:39:52;21.20;62.10
35305;DHT22;26433;48.034;-1.764;2022-07-29T05:45:00;21.30;62.10
35305;DHT22;26433;48.034;-1.764;2022-07-29T05:50:06;21.40;62.20
35305;DHT22;26433;48.034;-1.764;2022-07-29T05:55:10;21.40;62.10
35305;DHT22;26433;48.034;-1.764;2022-07-29T06:00:15;21.50;62.10
35305;DHT22;26433;48.034;-1.764;2022-07-29T06:05:20;21.50;62.10
35305;DHT22;26433;48.034;-1.764;2022-07-29T06:10:23;21.60;62.10
35305;DHT22;26433;48.034;-1.764;2022-07-29T06:15:28;21.70;61.90
35305;DHT22;26433;48.034;-1.764;2022-07-29T06:20:33;21.80;61.80
35305;DHT22;26433;48.034;-1.764;2022-07-29T06:25:36;21.90;61.50
35305;DHT22;26433;48.034;-1.764;2022-07-29T06:30:41;21.90;61.50
35305;DHT22;26433;48.034;-1.764;2022-07-29T06:35:46;21.90;61.60
35305;DHT22;26433;48.034;-1.764;2022-07-29T06:40:56;22.10;61.60
35305;DHT22;26433;48.034;-1.764;2022-07-29T06:46:08;22.20;61.30
35305;DHT22;26433;48.034;-1.764;2022-07-29T06:51:14;22.30;61.10
35305;DHT22;26433;48.034;-1.764;2022-07-29T06:56:24;22.40;61.40
35305;DHT22;26433;48.034;-1.764;2022-07-29T07:01:28;22.60;60.60
35305;DHT22;26433;48.034;-1.764;2022-07-29T07:06:33;22.70;60.40
35305;DHT22;26433;48.034;-1.764;2022-07-29T07:11:37;22.90;60.20
35305;DHT22;26433;48.034;-1.764;2022-07-29T07:16:41;23.00;59.90
35305;DHT22;26433;48.034;-1.764;2022-07-29T07:21:46;23.20;59.60
35305;DHT22;26433;48.034;-1.764;2022-07-29T07:26:49;23.30;59.40
35305;DHT22;26433;48.034;-1.764;2022-07-29T07:31:53;23.50;59.10
35305;DHT22;26433;48.034;-1.764;2022-07-29T07:37:04;23.60;58.80
35305;DHT22;26433;48.034;-1.764;2022-07-29T07:42:07;23.80;58.40
35305;DHT22;26433;48.034;-1.764;2022-07-29T07:47:13;24.00;58.10
35305;DHT22;26433;48.034;-1.764;2022-07-29T07:52:21;24.20;57.70
35305;DHT22;26433;48.034;-1.764;2022-07-29T07:57:25;24.40;57.30
35305;DHT22;26433;48.034;-1.764;2022-07-29T08:02:29;24.60;56.80
35305;DHT22;26433;48.034;-1.764;2022-07-29T08:07:34;24.90;56.00
35305;DHT22;26433;48.034;-1.764;2022-07-29T08:12:38;25.10;55.50
35305;DHT22;26433;48.034;-1.764;2022-07-29T08:17:41;25.40;54.90
35305;DHT22;26433;48.034;-1.764;2022-07-29T08:22:46;25.50;54.80
35305;DHT22;26433;48.034;-1.764;2022-07-29T08:27:50;25.40;54.80
35305;DHT22;26433;48.034;-1.764;2022-07-29T08:32:53;25.50;54.70
35305;DHT22;26433;48.034;-1.764;2022-07-29T08:37:59;25.60;54.40
35305;DHT22;26433;48.034;-1.764;2022-07-29T08:43:04;25.80;54.10
35305;DHT22;26433;48.034;-1.764;2022-07-29T08:48:09;26.10;53.70
35305;DHT22;26433;48.034;-1.764;2022-07-29T08:53:17;26.20;53.40
35305;DHT22;26433;48.034;-1.764;2022-07-29T08:58:21;26.20;53.20
35305;DHT22;26433;48.034;-1.764;2022-07-29T09:03:30;26.20;53.10
35305;DHT22;26433;48.034;-1.764;2022-07-29T09:08:36;26.30;52.80
35305;DHT22;26433;48.034;-1.764;2022-07-29T09:13:39;26.20;52.80
35305;DHT22;26433;48.034;-1.764;2022-07-29T09:18:45;26.20;52.80
35305;DHT22;26433;48.034;-1.764;2022-07-29T09:24:03;26.20;52.70
35305;DHT22;26433;48.034;-1.764;2022-07-29T09:29:11;26.30;52.50
35305;DHT22;26433;48.034;-1.764;2022-07-29T09:34:20;26.40;52.30
35305;DHT22;26433;48.034;-1.764;2022-07-29T09:41:13;26.60;52.00
35305;DHT22;26433;48.034;-1.764;2022-07-29T09:46:16;27.00;51.40
35305;DHT22;26433;48.034;-1.764;2022-07-29T09:51:20;27.30;51.00
35305;DHT22;26433;48.034;-1.764;2022-07-29T09:56:41;27.70;50.40
35305;DHT22;26433;48.034;-1.764;2022-07-29T10:01:45;28.00;50.00
35305;DHT22;26433;48.034;-1.764;2022-07-29T10:06:57;28.50;49.40
35305;DHT22;26433;48.034;-1.764;2022-07-29T10:12:09;29.10;48.60
35305;DHT22;26433;48.034;-1.764;2022-07-29T10:17:13;29.50;48.10
35305;DHT22;26433;48.034;-1.764;2022-07-29T10:22:17;29.70;47.80
35305;DHT22;26433;48.034;-1.764;2022-07-29T10:27:42;29.80;47.80
35305;DHT22;26433;48.034;-1.764;2022-07-29T10:33:01;29.80;47.90
35305;DHT22;26433;48.034;-1.764;2022-07-29T10:38:31;30.00;47.50
35305;DHT22;26433;48.034;-1.764;2022-07-29T10:43:44;30.40;47.20
35305;DHT22;26433;48.034;-1.764;2022-07-29T10:49:09;30.60;47.00
35305;DHT22;26433;48.034;-1.764;2022-07-29T10:54:16;31.10;46.50
35305;DHT22;26433;48.034;-1.764;2022-07-29T10:59:25;31.50;46.10
35305;DHT22;26433;48.034;-1.764;2022-07-29T11:04:59;31.70;46.00
35305;DHT22;26433;48.034;-1.764;2022-07-29T11:10:22;31.60;46.00
35305;DHT22;26433;48.034;-1.764;2022-07-29T11:15:52;31.70;46.00
35305;DHT22;26433;48.034;-1.764;2022-07-29T11:20:56;32.10;45.50
35305;DHT22;26433;48.034;-1.764;2022-07-29T11:26:16;33.20;44.60
35305;DHT22;26433;48.034;-1.764;2022-07-29T11:31:47;34.80;42.90
35305;DHT22;26433;48.034;-1.764;2022-07-29T11:37:17;36.00;41.80
35305;DHT22;26433;48.034;-1.764;2022-07-29T11:42:42;36.70;40.90
35305;DHT22;26433;48.034;-1.764;2022-07-29T11:47:52;36.90;41.00
35305;DHT22;26433;48.034;-1.764;2022-07-29T11:52:56;36.90;41.20
35305;DHT22;26433;48.034;-1.764;2022-07-29T11:58:01;37.00;41.10
35305;DHT22;26433;48.034;-1.764;2022-07-29T12:03:09;37.00;40.90
35305;DHT22;26433;48.034;-1.764;2022-07-29T12:08:14;37.00;40.80
35305;DHT22;26433;48.034;-1.764;2022-07-29T12:13:21;37.10;40.50
35305;DHT22;26433;48.034;-1.764;2022-07-29T12:18:40;37.40;40.30
35305;DHT22;26433;48.034;-1.764;2022-07-29T12:23:52;37.00;39.90
35305;DHT22;26433;48.034;-1.764;2022-07-29T12:28:56;37.10;39.80
35305;DHT22;26433;48.034;-1.764;2022-07-29T12:34:05;37.40;39.60
35305;DHT22;26433;48.034;-1.764;2022-07-29T12:39:08;37.50;39.30
35305;DHT22;26433;48.034;-1.764;2022-07-29T12:44:13;37.80;39.10
35305;DHT22;26433;48.034;-1.764;2022-07-29T12:49:22;37.60;39.00
35305;DHT22;26433;48.034;-1.764;2022-07-29T12:54:26;37.80;39.00
35305;DHT22;26433;48.034;-1.764;2022-07-29T12:59:30;37.80;38.60
35305;DHT22;26433;48.034;-1.764;2022-07-29T13:04:35;37.20;38.80
35305;DHT22;26433;48.034;-1.764;2022-07-29T13:09:40;36.60;39.30
35305;DHT22;26433;48.034;-1.764;2022-07-29T13:14:45;36.10;39.50
35305;DHT22;26433;48.034;-1.764;2022-07-29T13:19:52;35.40;39.90
35305;DHT22;26433;48.034;-1.764;2022-07-29T13:24:57;35.70;39.70
35305;DHT22;26433;48.034;-1.764;2022-07-29T13:30:04;36.40;38.70
35305;DHT22;26433;48.034;-1.764;2022-07-29T13:35:09;36.10;38.80
35305;DHT22;26433;48.034;-1.764;2022-07-29T13:40:14;35.90;38.90
35305;DHT22;26433;48.034;-1.764;2022-07-29T13:45:17;35.70;38.90
35305;DHT22;26433;48.034;-1.764;2022-07-29T13:50:23;35.60;38.90
35305;DHT22;26433;48.034;-1.764;2022-07-29T13:55:26;35.60;38.60
35305;DHT22;26433;48.034;-1.764;2022-07-29T14:00:30;35.20;38.90
35305;DHT22;26433;48.034;-1.764;2022-07-29T14:05:35;34.70;39.20
35305;DHT22;26433;48.034;-1.764;2022-07-29T14:10:39;34.30;40.00
35305;DHT22;26433;48.034;-1.764;2022-07-29T14:15:42;33.90;39.70
35305;DHT22;26433;48.034;-1.764;2022-07-29T14:20:47;33.70;39.90
35305;DHT22;26433;48.034;-1.764;2022-07-29T14:25:51;33.70;39.80
35305;DHT22;26433;48.034;-1.764;2022-07-29T14:30:55;33.70;39.70
35305;DHT22;26433;48.034;-1.764;2022-07-29T14:36:00;34.10;39.30
35305;DHT22;26433;48.034;-1.764;2022-07-29T14:41:04;34.30;39.00
35305;DHT22;26433;48.034;-1.764;2022-07-29T14:46:07;34.20;39.20
35305;DHT22;26433;48.034;-1.764;2022-07-29T14:51:13;33.70;39.60
35305;DHT22;26433;48.034;-1.764;2022-07-29T14:56:16;33.20;39.90
35305;DHT22;26433;48.034;-1.764;2022-07-29T15:01:38;32.80;40.10
35305;DHT22;26433;48.034;-1.764;2022-07-29T15:06:43;32.50;40.50
35305;DHT22;26433;48.034;-1.764;2022-07-29T15:11:47;32.20;40.60
35305;DHT22;26433;48.034;-1.764;2022-07-29T15:16:51;32.00;40.70
35305;DHT22;26433;48.034;-1.764;2022-07-29T15:21:56;32.10;40.70
35305;DHT22;26433;48.034;-1.764;2022-07-29T15:27:01;32.00;40.60
35305;DHT22;26433;48.034;-1.764;2022-07-29T15:32:05;32.10;40.60
35305;DHT22;26433;48.034;-1.764;2022-07-29T15:37:10;32.10;40.50
35305;DHT22;26433;48.034;-1.764;2022-07-29T15:42:14;32.00;40.60
35305;DHT22;26433;48.034;-1.764;2022-07-29T15:47:19;32.00;40.60
35305;DHT22;26433;48.034;-1.764;2022-07-29T15:52:24;32.00;40.70
35305;DHT22;26433;48.034;-1.764;2022-07-29T15:57:28;32.00;40.80
35305;DHT22;26433;48.034;-1.764;2022-07-29T16:02:31;32.00;40.50
35305;DHT22;26433;48.034;-1.764;2022-07-29T16:07:36;32.00;40.60
35305;DHT22;26433;48.034;-1.764;2022-07-29T16:12:40;31.90;40.60
35305;DHT22;26433;48.034;-1.764;2022-07-29T16:17:44;31.70;40.70
35305;DHT22;26433;48.034;-1.764;2022-07-29T16:22:49;31.60;40.90
35305;DHT22;26433;48.034;-1.764;2022-07-29T16:27:52;31.40;41.10
35305;DHT22;26433;48.034;-1.764;2022-07-29T16:33:01;31.20;41.30
35305;DHT22;26433;48.034;-1.764;2022-07-29T16:38:10;30.90;41.50
35305;DHT22;26433;48.034;-1.764;2022-07-29T16:43:14;30.70;41.80
35305;DHT22;26433;48.034;-1.764;2022-07-29T16:48:18;30.50;41.90
35305;DHT22;26433;48.034;-1.764;2022-07-29T16:53:23;30.60;42.00
35305;DHT22;26433;48.034;-1.764;2022-07-29T16:58:31;30.60;41.90
35305;DHT22;26433;48.034;-1.764;2022-07-29T17:03:35;30.70;41.90
35305;DHT22;26433;48.034;-1.764;2022-07-29T17:09:04;30.70;41.80
35305;DHT22;26433;48.034;-1.764;2022-07-29T17:14:08;30.70;41.80
35305;DHT22;26433;48.034;-1.764;2022-07-29T17:19:12;30.70;41.90
35305;DHT22;26433;48.034;-1.764;2022-07-29T17:24:17;30.60;42.60
35305;DHT22;26433;48.034;-1.764;2022-07-29T17:29:20;30.50;42.20
35305;DHT22;26433;48.034;-1.764;2022-07-29T17:34:24;30.40;42.40
35305;DHT22;26433;48.034;-1.764;2022-07-29T17:39:29;30.10;42.50
35305;DHT22;26433;48.034;-1.764;2022-07-29T17:44:33;29.80;42.80
35305;DHT22;26433;48.034;-1.764;2022-07-29T17:49:37;29.50;43.10
35305;DHT22;26433;48.034;-1.764;2022-07-29T17:54:42;29.30;43.30
35305;DHT22;26433;48.034;-1.764;2022-07-29T17:59:46;29.10;43.30
35305;DHT22;26433;48.034;-1.764;2022-07-29T18:04:49;28.80;43.50
35305;DHT22;26433;48.034;-1.764;2022-07-29T18:09:54;28.60;43.80
35305;DHT22;26433;48.034;-1.764;2022-07-29T18:15:02;28.40;43.80
35305;DHT22;26433;48.034;-1.764;2022-07-29T18:20:07;28.30;43.90
35305;DHT22;26433;48.034;-1.764;2022-07-29T18:25:12;28.10;44.10
35305;DHT22;26433;48.034;-1.764;2022-07-29T18:30:16;27.90;44.30
35305;DHT22;26433;48.034;-1.764;2022-07-29T18:35:20;27.60;44.30
35305;DHT22;26433;48.034;-1.764;2022-07-29T18:40:25;27.50;44.60
35305;DHT22;26433;48.034;-1.764;2022-07-29T18:45:30;27.30;44.60
35305;DHT22;26433;48.034;-1.764;2022-07-29T18:50:34;27.20;44.70
35305;DHT22;26433;48.034;-1.764;2022-07-29T18:55:39;27.10;44.70
35305;DHT22;26433;48.034;-1.764;2022-07-29T19:00:43;27.00;44.70
35305;DHT22;26433;48.034;-1.764;2022-07-29T19:05:46;26.90;44.60
35305;DHT22;26433;48.034;-1.764;2022-07-29T19:10:52;26.80;44.60
35305;DHT22;26433;48.034;-1.764;2022-07-29T19:15:55;26.80;44.70
35305;DHT22;26433;48.034;-1.764;2022-07-29T19:20:59;26.70;44.70
35305;DHT22;26433;48.034;-1.764;2022-07-29T19:26:04;26.60;44.60
35305;DHT22;26433;48.034;-1.764;2022-07-29T19:31:09;26.50;44.70
35305;DHT22;26433;48.034;-1.764;2022-07-29T19:36:13;26.30;44.80
35305;DHT22;26433;48.034;-1.764;2022-07-29T19:41:18;26.20;44.80
35305;DHT22;26433;48.034;-1.764;2022-07-29T19:46:23;26.20;44.80
35305;DHT22;26433;48.034;-1.764;2022-07-29T19:51:30;26.10;44.90
35305;DHT22;26433;48.034;-1.764;2022-07-29T19:56:35;26.00;45.00
35305;DHT22;26433;48.034;-1.764;2022-07-29T20:01:43;25.90;45.10
35305;DHT22;26433;48.034;-1.764;2022-07-29T20:06:47;25.80;45.30
35305;DHT22;26433;48.034;-1.764;2022-07-29T20:11:52;25.70;45.40
35305;DHT22;26433;48.034;-1.764;2022-07-29T20:16:56;25.50;45.60
35305;DHT22;26433;48.034;-1.764;2022-07-29T20:22:00;25.40;45.70
35305;DHT22;26433;48.034;-1.764;2022-07-29T20:27:05;25.40;46.00
35305;DHT22;26433;48.034;-1.764;2022-07-29T20:32:15;25.20;46.00
35305;DHT22;26433;48.034;-1.764;2022-07-29T20:37:18;25.20;46.30
35305;DHT22;26433;48.034;-1.764;2022-07-29T20:42:23;25.10;46.40
35305;DHT22;26433;48.034;-1.764;2022-07-29T20:47:27;25.00;46.50
35305;DHT22;26433;48.034;-1.764;2022-07-29T20:52:31;24.90;46.60
35305;DHT22;26433;48.034;-1.764;2022-07-29T20:57:36;24.80;46.80
35305;DHT22;26433;48.034;-1.764;2022-07-29T21:02:41;24.70;47.00
35305;DHT22;26433;48.034;-1.764;2022-07-29T21:07:45;24.60;47.40
35305;DHT22;26433;48.034;-1.764;2022-07-29T21:12:50;24.50;47.90
35305;DHT22;26433;48.034;-1.764;2022-07-29T21:17:54;24.50;47.60
35305;DHT22;26433;48.034;-1.764;2022-07-29T21:23:01;24.40;47.70
35305;DHT22;26433;48.034;-1.764;2022-07-29T21:28:06;24.30;47.90
35305;DHT22;26433;48.034;-1.764;2022-07-29T21:33:30;24.30;48.00
35305;DHT22;26433;48.034;-1.764;2022-07-29T21:38:35;24.20;48.10
35305;DHT22;26433;48.034;-1.764;2022-07-29T21:43:40;24.10;48.10
35305;DHT22;26433;48.034;-1.764;2022-07-29T21:48:44;24.00;48.30
35305;DHT22;26433;48.034;-1.764;2022-07-29T21:53:48;24.00;48.50
35305;DHT22;26433;48.034;-1.764;2022-07-29T21:58:55;23.80;48.80
35305;DHT22;26433;48.034;-1.764;2022-07-29T22:03:59;23.70;49.10
35305;DHT22;26433;48.034;-1.764;2022-07-29T22:09:03;23.50;49.30
35305;DHT22;26433;48.034;-1.764;2022-07-29T22:14:08;23.40;49.70
35305;DHT22;26433;48.034;-1.764;2022-07-29T22:19:12;23.30;49.90
35305;DHT22;26433;48.034;-1.764;2022-07-29T22:24:16;23.10;50.20
35305;DHT22;26433;48.034;-1.764;2022-07-29T22:29:21;22.90;50.50
35305;DHT22;26433;48.034;-1.764;2022-07-29T22:34:24;22.80;50.80
35305;DHT22;26433;48.034;-1.764;2022-07-29T22:39:39;22.70;50.90
35305;DHT22;26433;48.034;-1.764;2022-07-29T22:44:44;22.60;51.20
35305;DHT22;26433;48.034;-1.764;2022-07-29T22:49:48;22.50;51.30
35305;DHT22;26433;48.034;-1.764;2022-07-29T22:54:51;22.50;51.30
35305;DHT22;26433;48.034;-1.764;2022-07-29T22:59:56;22.50;51.50
35305;DHT22;26433;48.034;-1.764;2022-07-29T23:05:03;22.40;51.60
35305;DHT22;26433;48.034;-1.764;2022-07-29T23:10:08;22.40;51.70
35305;DHT22;26433;48.034;-1.764;2022-07-29T23:15:13;22.30;51.80
35305;DHT22;26433;48.034;-1.764;2022-07-29T23:20:19;22.30;51.90
35305;DHT22;26433;48.034;-1.764;2022-07-29T23:25:23;22.10;52.20
35305;DHT22;26433;48.034;-1.764;2022-07-29T23:30:28;22.00;52.40
35305;DHT22;26433;48.034;-1.764;2022-07-29T23:35:32;21.90;52.60
35305;DHT22;26433;48.034;-1.764;2022-07-29T23:40:35;21.70;52.70
35305;DHT22;26433;48.034;-1.764;2022-07-29T23:45:41;21.60;52.90
35305;DHT22;26433;48.034;-1.764;2022-07-29T23:50:50;21.50;53.10
35305;DHT22;26433;48.034;-1.764;2022-07-29T23:55:54;21.40;53.40
